createdAt,value
2023-03-06T00:02:38.343Z,-0.10
2023-03-06T00:07:41.658Z,-0.10
2023-03-06T00:12:44.341Z,-0.10
2023-03-06T00:17:47.057Z,0.00
2023-03-06T00:22:50.382Z,0.00
2023-03-06T00:27:53.360Z,0.00
2023-03-06T00:32:56.160Z,-0.10
2023-03-06T00:37:59.998Z,-0.10
2023-03-06T00:43:02.861Z,0.10
2023-03-06T00:48:06.090Z,0.00
2023-03-06T00:53:08.691Z,0.00
2023-03-06T00:58:11.493Z,-0.10
2023-03-06T01:03:14.320Z,0.00
2023-03-06T01:08:16.991Z,-0.10
2023-03-06T01:13:19.684Z,-0.10
2023-03-06T01:18:22.419Z,-0.20
2023-03-06T01:23:25.062Z,-0.10
2023-03-06T01:28:28.458Z,-0.10
2023-03-06T01:33:31.584Z,-0.20
2023-03-06T01:38:35.727Z,-0.20
2023-03-06T01:43:42.615Z,-0.20
2023-03-06T01:48:47.292Z,-0.10
2023-03-06T01:53:51.318Z,-0.20
2023-03-06T01:58:54.351Z,-0.20
2023-03-06T02:03:57.050Z,-0.20
2023-03-06T02:08:59.662Z,-0.20
2023-03-06T02:14:02.804Z,-0.30
2023-03-06T02:19:09.477Z,-0.30
2023-03-06T02:24:32.623Z,-0.30
2023-03-06T02:29:35.502Z,-0.40
2023-03-06T02:34:39.065Z,-0.40
2023-03-06T02:39:47.296Z,-0.40
2023-03-06T02:44:51.664Z,-0.50
2023-03-06T02:49:54.358Z,-0.50
2023-03-06T02:54:57.033Z,-0.60
2023-03-06T02:59:59.588Z,-0.60
2023-03-06T03:05:02.738Z,-0.60
2023-03-06T03:10:06.838Z,-0.60
2023-03-06T03:15:10.507Z,-0.60
2023-03-06T03:20:16.692Z,-0.60
2023-03-06T03:25:20.424Z,-0.60
2023-03-06T03:30:23.661Z,-0.40
2023-03-06T03:35:26.633Z,-0.30
2023-03-06T03:40:29.977Z,-0.30
2023-03-06T03:45:34.924Z,-0.20
2023-03-06T03:50:38.323Z,-0.20
2023-03-06T03:55:41.367Z,-0.10
2023-03-06T04:00:44.399Z,-0.10
2023-03-06T04:05:50.027Z,-0.10
2023-03-06T04:10:53.810Z,0.00
2023-03-06T04:15:57.301Z,-0.10
2023-03-06T04:21:00.125Z,0.00
2023-03-06T04:26:03.887Z,0.00
2023-03-06T04:31:06.800Z,0.00
2023-03-06T04:36:25.588Z,0.00
2023-03-06T04:41:30.892Z,0.00
2023-03-06T04:46:34.804Z,0.10
2023-03-06T04:51:37.546Z,0.10
2023-03-06T04:56:40.253Z,0.10
2023-03-06T05:01:43.063Z,0.00
2023-03-06T05:06:45.603Z,0.00
2023-03-06T05:11:48.183Z,0.00
2023-03-06T05:16:50.815Z,0.00
2023-03-06T05:21:53.456Z,0.10
2023-03-06T05:26:56.009Z,0.10
2023-03-06T05:31:59.166Z,0.10
2023-03-06T05:37:02.103Z,0.10
2023-03-06T05:42:04.855Z,0.00
2023-03-06T05:47:08.916Z,0.10
2023-03-06T05:52:13.518Z,0.00
2023-03-06T05:57:16.048Z,0.10
2023-03-06T06:02:19.400Z,0.30
2023-03-06T06:07:22.025Z,0.20
2023-03-06T06:12:25.020Z,0.40
2023-03-06T06:17:27.681Z,0.70
2023-03-06T06:22:30.384Z,0.90
2023-03-06T06:27:33.285Z,0.80
2023-03-06T06:32:36.796Z,1.00
2023-03-06T06:37:39.516Z,1.30
2023-03-06T06:42:42.880Z,1.40
2023-03-06T06:47:46.404Z,1.30
2023-03-06T06:52:50.443Z,1.50
2023-03-06T06:57:53.618Z,1.90
2023-03-06T07:02:56.422Z,4.70
2023-03-06T07:07:59.385Z,4.80
2023-03-06T07:13:02.641Z,3.60
2023-03-06T07:18:05.476Z,3.90
2023-03-06T07:23:11.892Z,3.90
2023-03-06T07:28:14.879Z,3.40
2023-03-06T07:33:18.164Z,3.60
2023-03-06T07:38:20.975Z,3.00
2023-03-06T07:43:23.763Z,3.20
2023-03-06T07:48:36.168Z,3.10
2023-03-06T07:53:38.891Z,3.40
2023-03-06T07:58:44.141Z,3.80
2023-03-06T08:03:47.627Z,4.00
2023-03-06T08:08:52.075Z,4.30
2023-03-06T08:13:56.129Z,4.30
2023-03-06T08:18:59.107Z,5.00
2023-03-06T08:24:01.934Z,5.20
2023-03-06T08:29:04.765Z,5.40
2023-03-06T08:34:10.177Z,5.90
2023-03-06T08:39:14.451Z,6.10
2023-03-06T08:44:17.384Z,6.00
2023-03-06T08:49:20.140Z,6.80
2023-03-06T08:54:22.779Z,8.10
2023-03-06T08:59:25.601Z,9.10
2023-03-06T09:04:31.520Z,12.00
2023-03-06T09:09:34.192Z,12.10
2023-03-06T09:14:36.971Z,14.00
2023-03-06T09:19:39.699Z,13.10
2023-03-06T09:24:42.696Z,13.60
2023-03-06T09:29:45.550Z,15.50
2023-03-06T09:34:48.536Z,13.10
2023-03-06T09:39:51.206Z,14.20
2023-03-06T09:45:00.981Z,13.90
2023-03-06T09:50:06.737Z,13.20
2023-03-06T09:55:17.852Z,12.90
2023-03-06T10:00:26.724Z,14.10
2023-03-06T10:06:15.278Z,13.40
2023-03-06T10:11:25.323Z,12.90
2023-03-06T10:16:29.718Z,11.10
2023-03-06T10:21:54.243Z,10.70
2023-03-06T10:27:11.236Z,14.20
2023-03-06T10:32:26.086Z,14.70
2023-03-06T10:37:31.630Z,13.70
2023-03-06T10:42:35.196Z,14.90
2023-03-06T10:47:38.804Z,14.90
2023-03-06T10:52:41.474Z,14.60
2023-03-06T10:57:44.139Z,14.50
2023-03-06T11:02:46.960Z,14.40
2023-03-06T11:07:59.545Z,14.40
2023-03-06T11:13:19.270Z,13.80
2023-03-06T11:18:28.827Z,14.10
2023-03-06T11:23:46.886Z,14.70
2023-03-06T11:29:04.066Z,14.80
2023-03-06T11:34:18.984Z,14.70
2023-03-06T11:39:53.602Z,12.00
2023-03-06T11:45:20.143Z,12.90
2023-03-06T11:50:39.377Z,12.10
2023-03-06T11:56:00.573Z,11.50
2023-03-06T12:01:13.737Z,9.90
2023-03-06T12:06:30.235Z,8.90
2023-03-06T12:11:40.540Z,8.60
2023-03-06T12:17:12.984Z,8.30
2023-03-06T12:22:31.286Z,8.00
2023-03-06T12:27:58.668Z,8.00
2023-03-06T12:33:28.561Z,7.70
2023-03-06T12:38:43.340Z,7.60
2023-03-06T12:43:52.195Z,7.60
2023-03-06T12:49:11.190Z,7.60
2023-03-06T12:54:15.576Z,7.40
2023-03-06T12:59:37.360Z,7.40
2023-03-06T13:05:10.688Z,7.50
2023-03-06T13:10:34.065Z,7.10
2023-03-06T13:15:40.009Z,7.60
2023-03-06T13:20:45.179Z,7.70
2023-03-06T13:25:50.486Z,7.80
2023-03-06T13:30:53.477Z,7.90
2023-03-06T13:36:19.512Z,8.00
2023-03-06T13:41:25.325Z,7.80
2023-03-06T13:46:37.774Z,7.60
2023-03-06T13:51:52.921Z,7.40
2023-03-06T13:57:13.510Z,7.40
2023-03-06T14:02:48.120Z,6.40
2023-03-06T14:08:11.140Z,5.60
2023-03-06T14:13:34.939Z,5.20
2023-03-06T14:18:47.336Z,5.00
2023-03-06T14:24:01.817Z,5.00
2023-03-06T14:29:05.419Z,5.10
2023-03-06T14:34:15.495Z,5.00
2023-03-06T14:39:45.774Z,5.00
2023-03-06T14:44:59.948Z,5.00
2023-03-06T14:50:25.268Z,5.10
2023-03-06T14:55:30.277Z,4.90
2023-03-06T15:00:41.088Z,5.00
2023-03-06T15:05:46.906Z,5.20
2023-03-06T15:11:04.404Z,5.40
2023-03-06T15:16:30.156Z,5.30
2023-03-06T15:21:38.082Z,5.30
2023-03-06T15:26:41.373Z,5.30
2023-03-06T15:31:45.977Z,5.30
2023-03-06T15:36:51.680Z,5.40
2023-03-06T15:42:14.835Z,5.30
2023-03-06T15:47:17.800Z,5.40
2023-03-06T15:52:24.073Z,5.20
2023-03-06T15:57:31.296Z,5.00
2023-03-06T16:02:34.181Z,4.90
2023-03-06T16:07:37.208Z,5.00
2023-03-06T16:12:40.817Z,4.80
2023-03-06T16:17:43.515Z,4.70
2023-03-06T16:22:47.904Z,4.60
2023-03-06T16:27:59.762Z,4.40
2023-03-06T16:33:03.762Z,4.30
2023-03-06T16:38:06.595Z,4.20
2023-03-06T16:43:10.852Z,4.10
2023-03-06T16:48:17.408Z,4.00
2023-03-06T16:53:20.108Z,4.10
2023-03-06T16:58:23.024Z,4.10
2023-03-06T17:03:26.074Z,4.00
2023-03-06T17:08:28.984Z,4.00
2023-03-06T17:13:31.923Z,3.90
2023-03-06T17:18:34.765Z,3.80
2023-03-06T17:23:38.366Z,3.50
2023-03-06T17:28:41.943Z,3.30
2023-03-06T17:33:45.156Z,3.20
2023-03-06T17:38:47.922Z,3.00
2023-03-06T17:43:51.896Z,2.90
2023-03-06T17:48:55.736Z,2.80
2023-03-06T17:53:58.675Z,2.80
2023-03-06T17:59:01.659Z,2.70
2023-03-06T18:04:05.841Z,2.50
2023-03-06T18:09:10.283Z,2.30
2023-03-06T18:14:13.173Z,2.20
2023-03-06T18:19:16.731Z,2.10
2023-03-06T18:24:19.573Z,1.90
2023-03-06T18:29:22.530Z,1.80
2023-03-06T18:34:25.652Z,1.80
2023-03-06T18:39:28.585Z,1.80
2023-03-06T18:44:31.392Z,1.80
2023-03-06T18:49:34.153Z,1.90
2023-03-06T18:54:37.091Z,1.90
2023-03-06T18:59:40.024Z,1.80
2023-03-06T19:04:42.705Z,1.80
2023-03-06T19:09:47.868Z,1.80
2023-03-06T19:14:50.929Z,1.80
2023-03-06T19:19:55.450Z,1.80
2023-03-06T19:24:58.372Z,1.90
2023-03-06T19:30:01.218Z,1.80
2023-03-06T19:35:05.776Z,1.80
2023-03-06T19:40:09.641Z,1.80
2023-03-06T19:45:12.751Z,1.80
2023-03-06T19:50:15.872Z,1.50
2023-03-06T19:55:18.656Z,1.50
2023-03-06T20:00:21.689Z,1.30
2023-03-06T20:05:24.429Z,1.10
2023-03-06T20:10:27.286Z,1.10
2023-03-06T20:15:30.251Z,1.00
2023-03-06T20:20:33.155Z,0.90
2023-03-06T20:25:36.961Z,0.70
2023-03-06T20:30:39.680Z,0.70
2023-03-06T20:35:43.715Z,0.80
2023-03-06T20:40:46.761Z,0.70
2023-03-06T20:46:03.442Z,0.60
2023-03-06T20:51:28.877Z,0.60
2023-03-06T20:56:34.403Z,0.50
2023-03-06T21:01:41.353Z,0.50
2023-03-06T21:06:47.111Z,0.50
2023-03-06T21:11:50.158Z,0.40
2023-03-06T21:16:52.909Z,0.30
2023-03-06T21:21:55.835Z,0.30
2023-03-06T21:26:58.528Z,0.30
2023-03-06T21:32:01.437Z,0.20
2023-03-06T21:37:04.377Z,0.10
2023-03-06T21:42:07.253Z,0.10
2023-03-06T21:47:09.925Z,0.10
2023-03-06T21:52:13.044Z,0.10
2023-03-06T21:57:15.775Z,0.20
2023-03-06T22:02:18.363Z,0.30
2023-03-06T22:07:21.765Z,0.10
2023-03-06T22:12:24.776Z,0.10
2023-03-06T22:17:27.558Z,0.20
2023-03-06T22:22:31.319Z,0.30
2023-03-06T22:27:33.920Z,0.20
2023-03-06T22:32:36.520Z,-0.10
2023-03-06T22:37:39.153Z,0.00
2023-03-06T22:42:41.773Z,0.00
2023-03-06T22:47:44.589Z,-0.10
2023-03-06T22:52:47.320Z,0.10
2023-03-06T22:57:50.362Z,0.20
2023-03-06T23:02:53.077Z,0.30
2023-03-06T23:07:55.611Z,0.40
2023-03-06T23:12:58.197Z,0.80
2023-03-06T23:18:19.573Z,1.00
2023-03-06T23:23:41.506Z,1.20
2023-03-06T23:28:45.053Z,1.10
2023-03-06T23:33:48.244Z,1.20
2023-03-06T23:38:50.920Z,1.00
2023-03-06T23:43:55.123Z,1.10
2023-03-06T23:48:57.917Z,1.00
2023-03-06T23:54:01.238Z,1.10
2023-03-06T23:59:03.916Z,1.10
